createdAt,value
2023-03-30T00:00:08.697Z,1007.33
2023-03-30T00:01:08.688Z,1007.36
2023-03-30T00:02:08.695Z,1007.34
2023-03-30T00:03:08.789Z,1007.33
2023-03-30T00:04:08.915Z,1007.28
2023-03-30T00:05:08.834Z,1007.34
2023-03-30T00:06:08.683Z,1007.32
2023-03-30T00:07:08.679Z,1007.31
2023-03-30T00:08:08.689Z,1007.30
2023-03-30T00:09:08.679Z,1007.33
2023-03-30T00:10:08.701Z,1007.30
2023-03-30T00:11:08.671Z,1007.28
2023-03-30T00:12:08.676Z,1007.32
2023-03-30T00:13:08.670Z,1007.31
2023-03-30T00:14:08.672Z,1007.29
2023-03-30T00:15:08.665Z,1007.28
2023-03-30T00:16:08.678Z,1007.26
2023-03-30T00:17:08.678Z,1007.26
2023-03-30T00:18:08.683Z,1007.28
2023-03-30T00:19:08.660Z,1007.25
2023-03-30T00:20:08.741Z,1007.25
2023-03-30T00:21:08.652Z,1007.19
2023-03-30T00:22:08.658Z,1007.15
2023-03-30T00:23:08.648Z,1007.16
2023-03-30T00:24:08.648Z,1007.16
2023-03-30T00:25:08.652Z,1007.14
2023-03-30T00:26:08.652Z,1007.16
2023-03-30T00:27:08.666Z,1007.12
2023-03-30T00:28:08.648Z,1007.11
2023-03-30T00:29:08.638Z,1007.10
2023-03-30T00:30:08.642Z,1007.10
2023-03-30T00:31:08.635Z,1007.13
2023-03-30T00:32:08.660Z,1007.08
2023-03-30T00:33:08.694Z,1007.08
2023-03-30T00:34:08.636Z,1007.07
2023-03-30T00:35:08.630Z,1007.07
2023-03-30T00:36:08.675Z,1007.06
2023-03-30T00:37:08.621Z,1007.04
2023-03-30T00:38:08.631Z,1007.02
2023-03-30T00:39:08.654Z,1006.99
2023-03-30T00:40:08.621Z,1006.95
2023-03-30T00:41:08.608Z,1006.94
2023-03-30T00:42:08.613Z,1006.92
2023-03-30T00:43:08.607Z,1006.92
2023-03-30T00:44:08.606Z,1006.92
2023-03-30T00:45:08.629Z,1006.91
2023-03-30T00:46:08.672Z,1006.90
2023-03-30T00:47:08.602Z,1006.89
2023-03-30T00:48:08.661Z,1006.90
2023-03-30T00:49:08.601Z,1006.86
2023-03-30T00:50:08.613Z,1006.84
2023-03-30T00:51:08.595Z,1006.85
2023-03-30T00:52:08.616Z,1006.79
2023-03-30T00:53:08.594Z,1006.81
2023-03-30T00:54:08.614Z,1006.79
2023-03-30T00:55:08.589Z,1006.77
2023-03-30T00:56:08.635Z,1006.70
2023-03-30T00:57:08.613Z,1006.74
2023-03-30T00:58:08.584Z,1006.71
2023-03-30T00:59:08.573Z,1006.66
2023-03-30T01:00:08.572Z,1006.66
2023-03-30T01:01:08.677Z,1006.63
2023-03-30T01:02:08.659Z,1006.60
2023-03-30T01:03:08.692Z,1006.59
2023-03-30T01:04:08.572Z,1006.55
2023-03-30T01:05:08.565Z,1006.55
2023-03-30T01:06:08.584Z,1006.53
2023-03-30T01:07:08.561Z,1006.50
2023-03-30T01:08:08.586Z,1006.50
2023-03-30T01:09:08.709Z,1006.46
2023-03-30T01:10:08.563Z,1006.47
2023-03-30T01:11:08.558Z,1006.40
2023-03-30T01:12:08.563Z,1006.44
2023-03-30T01:13:08.546Z,1006.44
2023-03-30T01:14:08.561Z,1006.41
2023-03-30T01:15:08.544Z,1006.38
2023-03-30T01:16:08.617Z,1006.38
2023-03-30T01:17:08.545Z,1006.39
2023-03-30T01:18:08.584Z,1006.34
2023-03-30T01:19:08.537Z,1006.31
2023-03-30T01:20:08.537Z,1006.26
2023-03-30T01:21:08.538Z,1006.23
2023-03-30T01:22:08.530Z,1006.21
2023-03-30T01:23:08.525Z,1006.15
2023-03-30T01:24:08.626Z,1006.14
2023-03-30T01:25:08.529Z,1006.10
2023-03-30T01:26:08.520Z,1006.10
2023-03-30T01:27:08.517Z,1006.07
2023-03-30T01:28:08.533Z,1006.11
2023-03-30T01:29:08.515Z,1006.08
2023-03-30T01:30:08.520Z,1006.09
2023-03-30T01:31:08.524Z,1006.09
2023-03-30T01:32:08.509Z,1006.04
2023-03-30T01:33:08.500Z,1006.02
2023-03-30T01:34:08.505Z,1006.05
2023-03-30T01:35:08.548Z,1006.00
2023-03-30T01:36:08.568Z,1005.98
2023-03-30T01:37:08.495Z,1006.01
2023-03-30T01:38:08.497Z,1005.91
2023-03-30T01:39:08.489Z,1005.92
2023-03-30T01:40:08.518Z,1005.90
2023-03-30T01:41:08.488Z,1005.86
2023-03-30T01:42:08.487Z,1005.84
2023-03-30T01:43:08.498Z,1005.84
2023-03-30T01:44:08.484Z,1005.78
2023-03-30T01:45:08.475Z,1005.80
2023-03-30T01:46:08.523Z,1005.75
2023-03-30T01:47:08.481Z,1005.76
2023-03-30T01:48:08.506Z,1005.72
2023-03-30T01:49:08.469Z,1005.79
2023-03-30T01:50:08.476Z,1005.78
2023-03-30T01:51:08.463Z,1005.76
2023-03-30T01:52:08.470Z,1005.71
2023-03-30T01:53:08.460Z,1005.65
2023-03-30T01:54:08.460Z,1005.69
2023-03-30T01:55:08.458Z,1005.60
2023-03-30T01:56:08.484Z,1005.62
2023-03-30T01:57:08.508Z,1005.56
2023-03-30T01:58:08.449Z,1005.52
2023-03-30T01:59:08.447Z,1005.46
2023-03-30T02:00:08.447Z,1005.52
2023-03-30T02:01:08.445Z,1005.49
2023-03-30T02:02:08.497Z,1005.50
2023-03-30T02:03:08.604Z,1005.46
2023-03-30T02:04:08.493Z,1005.47
2023-03-30T02:05:08.426Z,1005.49
2023-03-30T02:06:08.433Z,1005.54
2023-03-30T02:07:08.428Z,1005.51
2023-03-30T02:08:08.430Z,1005.59
2023-03-30T02:09:08.429Z,1005.57
2023-03-30T02:10:08.434Z,1005.52
2023-03-30T02:11:08.412Z,1005.54
2023-03-30T02:12:08.445Z,1005.47
2023-03-30T02:13:08.414Z,1005.52
2023-03-30T02:14:08.412Z,1005.53
2023-03-30T02:15:08.408Z,1005.56
2023-03-30T02:16:08.428Z,1005.56
2023-03-30T02:17:08.418Z,1005.54
2023-03-30T02:18:08.419Z,1005.60
2023-03-30T02:19:08.403Z,1005.64
2023-03-30T02:20:08.402Z,1005.64
2023-03-30T02:21:08.393Z,1005.61
2023-03-30T02:22:08.392Z,1005.55
2023-03-30T02:23:08.392Z,1005.50
2023-03-30T02:24:08.400Z,1005.50
2023-03-30T02:25:08.389Z,1005.39
2023-03-30T02:26:08.384Z,1005.36
2023-03-30T02:27:08.377Z,1005.35
2023-03-30T02:28:08.416Z,1005.37
2023-03-30T02:29:08.383Z,1005.32
2023-03-30T02:30:08.382Z,1005.34
2023-03-30T02:31:08.370Z,1005.32
2023-03-30T02:32:08.579Z,1005.33
2023-03-30T02:33:08.414Z,1005.32
2023-03-30T02:34:08.377Z,1005.30
2023-03-30T02:35:08.361Z,1005.34
2023-03-30T02:36:08.408Z,1005.34
2023-03-30T02:37:08.365Z,1005.34
2023-03-30T02:38:08.365Z,1005.32
2023-03-30T02:39:08.346Z,1005.34
2023-03-30T02:40:08.348Z,1005.28
2023-03-30T02:41:08.348Z,1005.29
2023-03-30T02:42:08.345Z,1005.26
2023-03-30T02:43:08.340Z,1005.26
2023-03-30T02:44:08.379Z,1005.25
2023-03-30T02:45:08.338Z,1005.18
2023-03-30T02:46:08.367Z,1005.21
2023-03-30T02:47:08.340Z,1005.21
2023-03-30T02:48:08.391Z,1005.19
2023-03-30T02:49:08.342Z,1005.17
2023-03-30T02:50:08.338Z,1005.16
2023-03-30T02:51:08.325Z,1005.18
2023-03-30T02:52:08.322Z,1005.14
2023-03-30T02:53:08.320Z,1005.14
2023-03-30T02:54:08.318Z,1005.14
2023-03-30T02:55:08.318Z,1005.11
2023-03-30T02:56:08.313Z,1005.07
2023-03-30T02:57:08.389Z,1005.10
2023-03-30T02:58:08.317Z,1005.04
2023-03-30T02:59:08.305Z,1004.98
2023-03-30T03:00:08.324Z,1004.93
2023-03-30T03:01:08.601Z,1004.91
2023-03-30T03:02:08.384Z,1004.95
2023-03-30T03:03:08.419Z,1004.97
2023-03-30T03:04:08.297Z,1004.95
2023-03-30T03:05:08.294Z,1004.92
2023-03-30T03:06:08.303Z,1004.92
2023-03-30T03:07:08.286Z,1004.91
2023-03-30T03:08:08.335Z,1004.89
2023-03-30T03:09:08.287Z,1004.85
2023-03-30T03:10:08.283Z,1004.84
2023-03-30T03:11:08.295Z,1004.80
2023-03-30T03:12:08.278Z,1004.76
2023-03-30T03:13:08.282Z,1004.72
2023-03-30T03:14:08.270Z,1004.69
2023-03-30T03:15:08.271Z,1004.66
2023-03-30T03:16:08.297Z,1004.60
2023-03-30T03:17:08.292Z,1004.55
2023-03-30T03:18:08.304Z,1004.57
2023-03-30T03:19:08.257Z,1004.64
2023-03-30T03:20:08.283Z,1004.64
2023-03-30T03:21:08.278Z,1004.63
2023-03-30T03:22:08.259Z,1004.62
2023-03-30T03:23:08.261Z,1004.60
2023-03-30T03:24:08.252Z,1004.61
2023-03-30T03:25:08.256Z,1004.60
2023-03-30T03:26:08.241Z,1004.61
2023-03-30T03:27:08.240Z,1004.54
2023-03-30T03:28:08.238Z,1004.59
2023-03-30T03:29:08.243Z,1004.61
2023-03-30T03:30:08.231Z,1004.62
2023-03-30T03:31:08.409Z,1004.62
2023-03-30T03:32:08.272Z,1004.62
2023-03-30T03:33:08.294Z,1004.54
2023-03-30T03:34:08.221Z,1004.53
2023-03-30T03:35:08.238Z,1004.50
2023-03-30T03:36:08.287Z,1004.49
2023-03-30T03:37:08.221Z,1004.48
2023-03-30T03:38:08.218Z,1004.46
2023-03-30T03:39:08.214Z,1004.47
2023-03-30T03:40:08.225Z,1004.42
2023-03-30T03:41:08.266Z,1004.42
2023-03-30T03:42:08.211Z,1004.38
2023-03-30T03:43:08.211Z,1004.33
2023-03-30T03:44:08.200Z,1004.41
2023-03-30T03:45:08.210Z,1004.41
2023-03-30T03:46:08.219Z,1004.44
2023-03-30T03:47:08.195Z,1004.45
2023-03-30T03:48:08.252Z,1004.46
2023-03-30T03:49:08.191Z,1004.48
2023-03-30T03:50:08.203Z,1004.47
2023-03-30T03:51:08.186Z,1004.41
2023-03-30T03:52:08.195Z,1004.42
2023-03-30T03:53:08.179Z,1004.38
2023-03-30T03:54:08.175Z,1004.32
2023-03-30T03:55:08.177Z,1004.26
2023-03-30T03:56:08.186Z,1004.25
2023-03-30T03:57:08.221Z,1004.29
2023-03-30T03:58:08.172Z,1004.25
2023-03-30T03:59:08.218Z,1004.24
2023-03-30T04:00:08.161Z,1004.17
2023-03-30T04:01:08.553Z,1004.15
2023-03-30T04:02:08.227Z,1004.16
2023-03-30T04:03:08.200Z,1004.12
2023-03-30T04:04:08.239Z,1004.11
2023-03-30T04:05:08.156Z,1004.07
2023-03-30T04:06:08.152Z,1004.08
2023-03-30T04:07:08.156Z,1004.01
2023-03-30T04:08:08.139Z,1003.98
2023-03-30T04:09:08.147Z,1003.98
2023-03-30T04:10:08.143Z,1003.97
2023-03-30T04:11:08.201Z,1003.91
2023-03-30T04:12:08.137Z,1003.92
2023-03-30T04:13:08.146Z,1003.91
2023-03-30T04:14:08.152Z,1003.93
2023-03-30T04:15:08.132Z,1003.92
2023-03-30T04:16:08.165Z,1003.88
2023-03-30T04:17:08.139Z,1003.91
2023-03-30T04:18:08.164Z,1003.91
2023-03-30T04:19:08.121Z,1003.87
2023-03-30T04:20:08.144Z,1003.83
2023-03-30T04:21:08.118Z,1003.76
2023-03-30T04:22:08.118Z,1003.71
2023-03-30T04:23:08.114Z,1003.70
2023-03-30T04:24:08.113Z,1003.68
2023-03-30T04:25:08.108Z,1003.68
2023-03-30T04:26:08.107Z,1003.69
2023-03-30T04:27:08.107Z,1003.67
2023-03-30T04:28:08.101Z,1003.67
2023-03-30T04:29:08.153Z,1003.65
2023-03-30T04:30:08.103Z,1003.62
2023-03-30T04:31:08.102Z,1003.59
2023-03-30T04:32:08.150Z,1003.65
2023-03-30T04:33:08.174Z,1003.60
2023-03-30T04:34:08.092Z,1003.64
2023-03-30T04:35:08.092Z,1003.63
2023-03-30T04:36:08.146Z,1003.58
2023-03-30T04:37:08.089Z,1003.62
2023-03-30T04:38:08.095Z,1003.64
2023-03-30T04:39:08.082Z,1003.62
2023-03-30T04:40:08.086Z,1003.62
2023-03-30T04:41:08.085Z,1003.63
2023-03-30T04:42:08.072Z,1003.64
2023-03-30T04:43:08.078Z,1003.59
2023-03-30T04:44:08.079Z,1003.63
2023-03-30T04:45:08.092Z,1003.62
2023-03-30T04:46:08.139Z,1003.60
2023-03-30T04:47:08.076Z,1003.58
2023-03-30T04:48:08.127Z,1003.57
2023-03-30T04:49:08.064Z,1003.56
2023-03-30T04:50:08.048Z,1003.60
2023-03-30T04:51:08.057Z,1003.56
2023-03-30T04:52:08.073Z,1003.50
2023-03-30T04:53:08.048Z,1003.54
2023-03-30T04:54:08.043Z,1003.57
2023-03-30T04:55:08.052Z,1003.57
2023-03-30T04:56:08.041Z,1003.60
2023-03-30T04:57:08.069Z,1003.59
2023-03-30T04:58:08.040Z,1003.60
2023-03-30T04:59:08.041Z,1003.62
2023-03-30T05:00:08.031Z,1003.68
2023-03-30T05:01:08.057Z,1003.65
2023-03-30T05:02:08.106Z,1003.57
2023-03-30T05:03:08.179Z,1003.57
2023-03-30T05:04:08.025Z,1003.55
2023-03-30T05:05:08.034Z,1003.49
2023-03-30T05:06:08.034Z,1003.50
2023-03-30T05:07:08.015Z,1003.61
2023-03-30T05:08:08.032Z,1003.61
2023-03-30T05:09:08.053Z,1003.61
2023-03-30T05:10:08.047Z,1003.58
2023-03-30T05:11:08.013Z,1003.53
2023-03-30T05:12:08.013Z,1003.51
2023-03-30T05:13:08.018Z,1003.50
2023-03-30T05:14:08.002Z,1003.50
2023-03-30T05:15:08.005Z,1003.52
2023-03-30T05:16:07.998Z,1003.52
2023-03-30T05:17:08.036Z,1003.44
2023-03-30T05:18:08.149Z,1003.38
2023-03-30T05:19:07.989Z,1003.38
2023-03-30T05:20:07.998Z,1003.35
2023-03-30T05:21:07.994Z,1003.32
2023-03-30T05:22:08.012Z,1003.28
2023-03-30T05:23:07.992Z,1003.25
2023-03-30T05:24:08.006Z,1003.28
2023-03-30T05:25:08.002Z,1003.29
2023-03-30T05:26:08.025Z,1003.35
2023-03-30T05:27:07.981Z,1003.28
2023-03-30T05:28:07.968Z,1003.27
2023-03-30T05:29:07.979Z,1003.22
2023-03-30T05:30:07.982Z,1003.20
2023-03-30T05:31:08.206Z,1003.08
2023-03-30T05:32:07.960Z,1003.02
2023-03-30T05:33:07.991Z,1002.96
2023-03-30T05:34:07.970Z,1002.86
2023-03-30T05:35:07.961Z,1002.86
2023-03-30T05:36:07.984Z,1002.81
2023-03-30T05:37:07.956Z,1002.78
2023-03-30T05:38:07.948Z,1002.81
2023-03-30T05:39:07.954Z,1002.86
2023-03-30T05:40:07.970Z,1002.86
2023-03-30T05:41:07.955Z,1002.85
2023-03-30T05:42:07.959Z,1002.84
2023-03-30T05:43:09.400Z,1002.81
2023-03-30T05:44:07.936Z,1002.80
2023-03-30T05:45:07.936Z,1002.81
2023-03-30T05:46:08.013Z,1002.86
2023-03-30T05:47:07.940Z,1002.93
2023-03-30T05:48:07.929Z,1002.96
2023-03-30T05:49:07.930Z,1003.01
2023-03-30T05:50:07.927Z,1003.00
2023-03-30T05:51:08.303Z,1002.99
2023-03-30T05:52:07.919Z,1003.00
2023-03-30T05:53:07.920Z,1002.98
2023-03-30T05:54:07.918Z,1002.99
2023-03-30T05:55:07.912Z,1002.95
2023-03-30T05:56:07.934Z,1002.93
2023-03-30T05:57:07.926Z,1002.89
2023-03-30T05:58:07.909Z,1002.82
2023-03-30T05:59:07.904Z,1002.81
2023-03-30T06:00:07.968Z,1002.89
2023-03-30T06:01:07.908Z,1002.83
2023-03-30T06:02:10.723Z,1002.86
2023-03-30T06:03:07.980Z,1002.79
2023-03-30T06:04:07.993Z,1002.84
2023-03-30T06:05:07.894Z,1002.81
2023-03-30T06:06:07.909Z,1002.81
2023-03-30T06:07:07.922Z,1002.79
2023-03-30T06:08:07.892Z,1002.82
2023-03-30T06:09:07.883Z,1002.86
2023-03-30T06:10:07.896Z,1002.88
2023-03-30T06:11:07.893Z,1002.84
2023-03-30T06:12:07.904Z,1002.84
2023-03-30T06:13:07.882Z,1002.73
2023-03-30T06:14:07.875Z,1002.68
2023-03-30T06:15:07.883Z,1002.69
2023-03-30T06:16:07.880Z,1002.58
2023-03-30T06:17:07.869Z,1002.57
2023-03-30T06:18:07.958Z,1002.58
2023-03-30T06:19:07.867Z,1002.59
2023-03-30T06:20:07.857Z,1002.56
2023-03-30T06:21:07.944Z,1002.55
2023-03-30T06:22:07.857Z,1002.53
2023-03-30T06:23:07.861Z,1002.55
2023-03-30T06:24:07.850Z,1002.54
2023-03-30T06:25:07.863Z,1002.55
2023-03-30T06:26:07.890Z,1002.57
2023-03-30T06:27:07.849Z,1002.60
2023-03-30T06:28:07.882Z,1002.65
2023-03-30T06:29:07.852Z,1002.58
2023-03-30T06:30:07.837Z,1002.56
2023-03-30T06:31:07.843Z,1002.55
2023-03-30T06:32:07.949Z,1002.60
2023-03-30T06:33:07.894Z,1002.61
2023-03-30T06:34:07.832Z,1002.53
2023-03-30T06:35:07.831Z,1002.54
2023-03-30T06:36:07.868Z,1002.53
2023-03-30T06:37:07.824Z,1002.51
2023-03-30T06:38:07.829Z,1002.54
2023-03-30T06:39:07.841Z,1002.47
2023-03-30T06:40:07.823Z,1002.41
2023-03-30T06:41:07.816Z,1002.43
2023-03-30T06:42:07.819Z,1002.47
2023-03-30T06:43:07.822Z,1002.52
2023-03-30T06:44:07.901Z,1002.55
2023-03-30T06:45:07.816Z,1002.57
2023-03-30T06:46:07.880Z,1002.64
2023-03-30T06:47:07.809Z,1002.71
2023-03-30T06:48:07.841Z,1002.67
2023-03-30T06:49:07.815Z,1002.60
2023-03-30T06:50:07.859Z,1002.56
2023-03-30T06:51:07.802Z,1002.52
2023-03-30T06:52:08.791Z,1002.54
2023-03-30T06:53:07.809Z,1002.49
2023-03-30T06:54:07.795Z,1002.53
2023-03-30T06:55:07.796Z,1002.51
2023-03-30T06:56:07.789Z,1002.51
2023-03-30T06:57:07.836Z,1002.49
2023-03-30T06:58:07.799Z,1002.53
2023-03-30T06:59:07.821Z,1002.58
2023-03-30T07:00:07.817Z,1002.51
2023-03-30T07:01:07.848Z,1002.51
2023-03-30T07:02:07.784Z,1002.45
2023-03-30T07:03:07.880Z,1002.48
2023-03-30T07:04:07.990Z,1002.52
2023-03-30T07:05:07.782Z,1002.53
2023-03-30T07:06:07.771Z,1002.47
2023-03-30T07:07:07.784Z,1002.46
2023-03-30T07:08:07.770Z,1002.45
2023-03-30T07:09:07.774Z,1002.41
2023-03-30T07:10:07.779Z,1002.40
2023-03-30T07:11:07.775Z,1002.41
2023-03-30T07:12:07.768Z,1002.41
2023-03-30T07:13:07.768Z,1002.38
2023-03-30T07:14:07.764Z,1002.43
2023-03-30T07:15:07.761Z,1002.41
2023-03-30T07:16:07.793Z,1002.40
2023-03-30T07:17:07.963Z,1002.42
2023-03-30T07:18:07.784Z,1002.52
2023-03-30T07:19:07.754Z,1002.43
2023-03-30T07:20:07.762Z,1002.44
2023-03-30T07:21:07.757Z,1002.48
2023-03-30T07:22:07.756Z,1002.41
2023-03-30T07:23:07.765Z,1002.35
2023-03-30T07:24:07.752Z,1002.40
2023-03-30T07:25:07.751Z,1002.39
2023-03-30T07:26:07.756Z,1002.38
2023-03-30T07:27:07.750Z,1002.42
2023-03-30T07:28:07.751Z,1002.40
2023-03-30T07:29:07.758Z,1002.41
2023-03-30T07:30:20.641Z,1002.50
2023-03-30T07:31:08.156Z,1002.64
2023-03-30T07:32:07.793Z,1002.54
2023-03-30T07:33:07.862Z,1002.46
2023-03-30T07:34:07.758Z,1002.45
2023-03-30T07:35:07.736Z,1002.51
2023-03-30T07:36:07.777Z,1002.49
2023-03-30T07:37:07.842Z,1002.44
2023-03-30T07:38:07.736Z,1002.42
2023-03-30T07:39:07.742Z,1002.44
2023-03-30T07:40:07.817Z,1002.51
2023-03-30T07:41:07.735Z,1002.56
2023-03-30T07:42:07.741Z,1002.54
2023-03-30T07:43:07.765Z,1002.59
2023-03-30T07:44:07.762Z,1003.02
2023-03-30T07:45:07.730Z,1003.40
2023-03-30T07:46:07.760Z,1003.70
2023-03-30T07:47:07.780Z,1003.77
2023-03-30T07:48:08.377Z,1003.78
2023-03-30T07:49:07.747Z,1003.98
2023-03-30T07:50:07.731Z,1004.28
2023-03-30T07:51:07.731Z,1004.32
2023-03-30T07:52:07.778Z,1004.47
2023-03-30T07:53:07.731Z,1004.68
2023-03-30T07:54:07.734Z,1004.72
2023-03-30T07:55:07.792Z,1004.71
2023-03-30T07:56:07.746Z,1005.11
2023-03-30T07:57:07.830Z,1005.20
2023-03-30T07:58:07.864Z,1002.67
2023-03-30T07:59:07.741Z,1005.76
2023-03-30T08:00:07.751Z,1002.69
2023-03-30T08:01:07.739Z,1005.57
2023-03-30T08:02:07.781Z,1005.63
2023-03-30T08:03:07.815Z,1005.37
2023-03-30T08:04:07.864Z,1006.05
2023-03-30T08:05:07.843Z,1006.30
2023-03-30T08:06:07.760Z,1004.27
2023-03-30T08:07:07.740Z,1002.90
2023-03-30T08:08:07.753Z,1003.05
2023-03-30T08:09:07.743Z,1005.92
2023-03-30T08:10:07.751Z,1004.56
2023-03-30T08:11:07.739Z,1005.71
2023-03-30T08:12:07.775Z,1002.08
2023-03-30T08:13:07.778Z,1001.98
2023-03-30T08:14:07.784Z,1002.09
2023-03-30T08:15:07.746Z,1002.13
2023-03-30T08:16:07.790Z,1002.44
2023-03-30T08:17:07.786Z,1002.92
2023-03-30T08:18:07.907Z,1008.76
2023-03-30T08:19:07.763Z,1003.99
2023-03-30T08:20:07.777Z,1008.77
2023-03-30T08:21:07.839Z,1008.39
2023-03-30T08:22:07.759Z,1008.69
2023-03-30T08:23:07.759Z,1009.30
2023-03-30T08:24:07.762Z,1009.93
2023-03-30T08:25:07.794Z,1009.74
2023-03-30T08:26:07.771Z,1009.67
2023-03-30T08:27:07.772Z,1010.50
2023-03-30T08:28:07.768Z,1011.01
2023-03-30T08:29:07.785Z,1011.13
2023-03-30T08:30:07.818Z,1010.78
2023-03-30T08:31:08.134Z,1010.27
2023-03-30T08:32:07.956Z,1010.48
2023-03-30T08:33:07.862Z,1010.50
2023-03-30T08:34:07.791Z,1012.78
2023-03-30T08:35:07.827Z,1013.11
2023-03-30T08:36:07.932Z,1013.08
2023-03-30T08:37:07.849Z,1012.68
2023-03-30T08:38:07.797Z,1012.17
2023-03-30T08:39:07.798Z,1012.39
2023-03-30T08:40:07.813Z,1012.06
2023-03-30T08:41:07.802Z,1010.99
2023-03-30T08:42:07.809Z,1009.99
2023-03-30T08:43:07.814Z,1009.40
2023-03-30T08:44:07.834Z,1009.26
2023-03-30T08:45:07.850Z,1009.20
2023-03-30T08:46:07.897Z,1008.78
2023-03-30T08:47:07.843Z,1009.16
2023-03-30T08:48:07.882Z,1008.74
2023-03-30T08:49:07.848Z,1007.49
2023-03-30T08:50:07.872Z,1007.05
2023-03-30T08:51:07.857Z,1007.08
2023-03-30T08:52:07.894Z,1007.25
2023-03-30T08:53:07.883Z,1007.00
2023-03-30T08:54:07.872Z,1006.35
2023-03-30T08:55:07.891Z,1006.21
2023-03-30T08:56:07.891Z,1006.26
2023-03-30T08:57:08.037Z,1005.75
2023-03-30T08:58:07.919Z,1006.01
2023-03-30T08:59:07.910Z,1005.37
2023-03-30T09:00:07.920Z,1005.16
2023-03-30T09:01:08.145Z,1003.81
2023-03-30T09:02:07.936Z,1004.74
2023-03-30T09:03:08.043Z,1003.99
2023-03-30T09:04:07.955Z,1003.87
2023-03-30T09:05:07.992Z,1003.76
2023-03-30T09:06:07.967Z,1002.69
2023-03-30T09:07:07.983Z,1002.46
2023-03-30T09:08:08.015Z,1002.14
2023-03-30T09:09:07.989Z,1002.40
2023-03-30T09:10:08.006Z,1002.72
2023-03-30T09:11:08.001Z,1001.95
2023-03-30T09:12:08.013Z,1001.77
2023-03-30T09:13:08.016Z,1001.66
2023-03-30T09:14:08.030Z,1001.65
2023-03-30T09:15:08.034Z,1001.70
2023-03-30T09:16:08.108Z,1001.66
2023-03-30T09:17:08.058Z,1001.64
2023-03-30T09:18:08.110Z,1001.60
2023-03-30T09:19:08.059Z,1001.81
2023-03-30T09:20:08.067Z,1001.78
2023-03-30T09:21:08.137Z,1001.77
2023-03-30T09:22:08.111Z,1001.84
2023-03-30T09:23:08.078Z,1001.82
2023-03-30T09:24:08.125Z,1001.85
2023-03-30T09:25:08.096Z,1001.78
2023-03-30T09:26:08.101Z,1001.77
2023-03-30T09:27:08.110Z,1001.77
2023-03-30T09:28:08.432Z,1001.82
2023-03-30T09:29:08.112Z,1001.70
2023-03-30T09:30:08.120Z,1001.80
2023-03-30T09:31:08.548Z,1001.73
2023-03-30T09:32:08.214Z,1001.65
2023-03-30T09:33:08.175Z,1001.66
2023-03-30T09:34:09.299Z,1001.58
2023-03-30T09:35:08.461Z,1001.61
2023-03-30T09:36:08.166Z,1001.59
2023-03-30T09:37:08.159Z,1001.58
2023-03-30T09:38:08.151Z,1001.59
2023-03-30T09:39:08.164Z,1001.56
2023-03-30T09:40:08.184Z,1001.62
2023-03-30T09:41:08.164Z,1001.67
2023-03-30T09:42:08.174Z,1001.62
2023-03-30T09:43:08.487Z,1001.62
2023-03-30T09:44:08.177Z,1001.62
2023-03-30T09:45:08.186Z,1001.70
2023-03-30T09:46:08.357Z,1001.63
2023-03-30T09:47:08.184Z,1001.76
2023-03-30T09:48:08.280Z,1001.76
2023-03-30T09:49:08.182Z,1001.70
2023-03-30T09:50:08.231Z,1001.74
2023-03-30T09:51:08.191Z,1001.73
2023-03-30T09:52:08.298Z,1001.74
2023-03-30T09:53:08.203Z,1001.77
2023-03-30T09:54:08.202Z,1001.73
2023-03-30T09:55:08.212Z,1001.69
2023-03-30T09:56:08.235Z,1001.74
2023-03-30T09:57:08.251Z,1001.64
2023-03-30T09:58:08.210Z,1001.64
2023-03-30T09:59:08.205Z,1001.63
2023-03-30T10:00:08.217Z,1001.61
2023-03-30T10:01:08.445Z,1001.57
2023-03-30T10:02:10.507Z,1001.52
2023-03-30T10:03:08.308Z,1001.54
2023-03-30T10:04:08.388Z,1001.57
2023-03-30T10:05:08.224Z,1001.66
2023-03-30T10:06:08.302Z,1001.59
2023-03-30T10:07:18.282Z,1001.62
2023-03-30T10:08:08.236Z,1001.62
2023-03-30T10:09:08.228Z,1001.58
2023-03-30T10:10:08.234Z,1001.46
2023-03-30T10:11:08.230Z,1001.50
2023-03-30T10:12:08.279Z,1001.43
2023-03-30T10:13:08.235Z,1001.40
2023-03-30T10:14:08.260Z,1001.47
2023-03-30T10:15:08.246Z,1001.34
2023-03-30T10:16:08.599Z,1001.38
2023-03-30T10:17:08.240Z,1001.39
2023-03-30T10:18:08.302Z,1001.42
2023-03-30T10:19:08.246Z,1001.44
2023-03-30T10:20:13.974Z,1001.51
2023-03-30T10:21:08.246Z,1001.54
2023-03-30T10:22:08.327Z,1001.63
2023-03-30T10:23:08.251Z,1001.47
2023-03-30T10:24:08.309Z,1001.48
2023-03-30T10:25:09.864Z,1001.52
2023-03-30T10:26:08.265Z,1001.53
2023-03-30T10:27:08.256Z,1001.48
2023-03-30T10:28:08.278Z,1001.60
2023-03-30T10:29:08.259Z,1001.55
2023-03-30T10:30:08.267Z,1001.57
2023-03-30T10:31:08.369Z,1001.58
2023-03-30T10:32:08.281Z,1001.59
2023-03-30T10:33:08.303Z,1001.55
2023-03-30T10:34:08.266Z,1001.51
2023-03-30T10:35:08.292Z,1001.60
2023-03-30T10:36:08.688Z,1001.54
2023-03-30T10:37:09.077Z,1001.51
2023-03-30T10:38:08.280Z,1001.54
2023-03-30T10:39:08.269Z,1001.55
2023-03-30T10:40:08.269Z,1001.49
2023-03-30T10:41:08.268Z,1001.43
2023-03-30T10:42:08.413Z,1001.48
2023-03-30T10:43:08.268Z,1001.50
2023-03-30T10:44:08.297Z,1001.54
2023-03-30T10:45:08.268Z,1001.47
2023-03-30T10:46:18.761Z,1001.44
2023-03-30T10:47:08.310Z,1001.48
2023-03-30T10:48:11.363Z,1001.44
2023-03-30T10:49:08.280Z,1001.40
2023-03-30T10:50:08.285Z,1001.41
2023-03-30T10:51:08.278Z,1001.42
2023-03-30T10:52:08.280Z,1001.51
2023-03-30T10:53:08.274Z,1001.42
2023-03-30T10:54:08.280Z,1001.39
2023-03-30T10:55:08.284Z,1001.42
2023-03-30T10:56:08.288Z,1001.40
2023-03-30T10:57:08.363Z,1001.43
2023-03-30T10:58:08.285Z,1001.44
2023-03-30T10:59:08.276Z,1001.46
2023-03-30T11:00:08.312Z,1001.54
2023-03-30T11:01:08.292Z,1001.61
2023-03-30T11:02:08.282Z,1001.53
2023-03-30T11:03:08.434Z,1001.66
2023-03-30T11:04:16.587Z,1001.49
2023-03-30T11:05:08.282Z,1001.47
2023-03-30T11:06:08.292Z,1001.44
2023-03-30T11:07:08.330Z,1001.37
2023-03-30T11:08:08.292Z,1001.28
2023-03-30T11:09:08.283Z,1001.34
2023-03-30T11:10:08.289Z,1001.47
2023-03-30T11:11:08.283Z,1001.38
2023-03-30T11:12:08.303Z,1001.45
2023-03-30T11:13:08.284Z,1001.46
2023-03-30T11:14:08.286Z,1001.52
2023-03-30T11:15:08.284Z,1001.56
2023-03-30T11:16:08.613Z,1001.52
2023-03-30T11:17:08.374Z,1001.51
2023-03-30T11:18:08.331Z,1001.48
2023-03-30T11:19:08.338Z,1001.45
2023-03-30T11:20:08.300Z,1001.38
2023-03-30T11:21:08.294Z,1001.27
2023-03-30T11:22:08.294Z,1001.24
2023-03-30T11:23:08.299Z,1001.29
2023-03-30T11:24:08.294Z,1001.23
2023-03-30T11:25:08.291Z,1001.18
2023-03-30T11:26:08.589Z,1001.23
2023-03-30T11:27:08.286Z,1001.22
2023-03-30T11:28:08.294Z,1001.15
2023-03-30T11:29:08.291Z,1001.18
2023-03-30T11:30:08.299Z,1001.19
2023-03-30T11:31:08.300Z,1001.22
2023-03-30T11:32:08.426Z,1001.32
2023-03-30T11:33:08.357Z,1001.19
2023-03-30T11:34:08.291Z,1001.20
2023-03-30T11:35:08.290Z,1001.17
2023-03-30T11:36:08.740Z,1001.15
2023-03-30T11:37:08.302Z,1001.16
2023-03-30T11:38:08.301Z,1001.13
2023-03-30T11:39:09.260Z,1001.12
2023-03-30T11:40:08.321Z,1001.16
2023-03-30T11:41:08.300Z,1001.13
2023-03-30T11:42:08.304Z,1001.12
2023-03-30T11:43:08.300Z,1001.17
2023-03-30T11:44:08.295Z,1001.15
2023-03-30T11:45:08.302Z,1001.33
2023-03-30T11:46:08.522Z,1001.13
2023-03-30T11:47:08.301Z,1001.14
2023-03-30T11:48:08.369Z,1001.28
2023-03-30T11:49:08.311Z,1001.18
2023-03-30T11:50:08.299Z,1001.14
2023-03-30T11:51:08.302Z,1001.11
2023-03-30T11:52:08.307Z,1001.04
2023-03-30T11:53:08.308Z,1001.04
2023-03-30T11:54:08.305Z,1001.09
2023-03-30T11:55:08.308Z,1001.07
2023-03-30T11:56:08.309Z,1001.17
2023-03-30T11:57:08.319Z,1001.07
2023-03-30T11:58:08.310Z,1001.08
2023-03-30T11:59:08.312Z,1001.08
2023-03-30T12:00:08.318Z,1001.00
2023-03-30T12:01:08.313Z,1000.92
2023-03-30T12:02:08.306Z,1000.87
2023-03-30T12:03:08.465Z,1000.86
2023-03-30T12:04:08.516Z,1000.85
2023-03-30T12:05:08.376Z,1000.78